Time;durP1;ratioP1;P1;durP2;ratioP2;P2;SDS_P1;SDS_P2;PMS_P1;PMS_P2;Temp;Humidity;BMP_temperature;BMP_pressure;BME280_temperature;BME280_humidity;BME280_pressure;Samples;Min_cycle;Max_cycle;Signal;HPM_P1;HPM_P2
2022/06/27 00:01:19;;;;;;;1.25;0.93;;;24.50;87.90;;;23.00;nan;102245.06;5034335;28;20082;-48
2022/06/27 00:03:44;;;;;;;1.45;1.10;;;24.60;63.50;;;23.00;nan;102253.34;5034358;28;20079;-49
2022/06/27 00:06:11;;;;;;;1.90;1.13;;;24.70;87.40;;;22.99;nan;102246.97;5034346;28;20044;-50
2022/06/27 00:08:37;;;;;;;3.08;1.05;;;24.90;88.20;;;22.98;nan;102256.34;5034241;28;20463;-48
2022/06/27 00:11:03;;;;;;;1.33;0.90;;;;;;;22.97;nan;102257.41;5034193;28;20068;-47
2022/06/27 00:13:29;;;;;;;1.52;1.02;;;;;;;22.98;nan;102249.97;5034364;28;20077;-47
2022/06/27 00:15:55;;;;;;;2.28;1.13;;;24.40;88.20;;;22.99;nan;102248.91;5033935;28;20029;-49
2022/06/27 00:18:21;;;;;;;1.40;0.88;;;24.70;88.30;;;22.96;nan;102252.94;5033972;28;20045;-48
2022/06/27 00:20:47;;;;;;;1.10;1.00;;;24.70;88.20;;;22.96;nan;102254.84;5034325;28;20032;-49
2022/06/27 00:23:12;;;;;;;1.58;1.10;;;24.60;78.70;;;22.96;nan;102252.09;5034001;28;20037;-49
2022/06/27 00:25:38;;;;;;;1.50;1.15;;;;;;;22.95;nan;102247.69;5033851;28;20040;-48
2022/06/27 00:28:04;;;;;;;1.25;0.73;;;24.70;67.60;;;22.94;nan;102257.84;5033899;28;20472;-47
2022/06/27 00:30:30;;;;;;;1.65;1.17;;;;;;;22.94;nan;102260.63;5033936;28;20112;-48
2022/06/27 00:32:56;;;;;;;2.90;0.93;;;;;;;22.95;nan;102267.00;5033973;28;20393;-48
2022/06/27 00:35:22;;;;;;;1.92;1.15;;;;;;;22.94;nan;102270.81;5033739;28;20041;-48
2022/06/27 00:37:48;;;;;;;1.33;1.05;;;;;;;22.94;nan;102273.56;5033444;28;20033;-46
2022/06/27 00:40:14;;;;;;;1.40;1.00;;;;;;;22.94;nan;102279.06;5033736;28;20041;-46
2022/06/27 00:42:41;;;;;;;1.60;1.17;;;;;;;22.93;nan;102288.41;5033638;28;20053;-46
2022/06/27 00:45:07;;;;;;;2.58;1.50;;;24.50;81.20;;;22.92;nan;102287.59;5033531;28;20044;-47
2022/06/27 00:47:33;;;;;;;2.20;1.13;;;24.60;88.30;;;22.93;nan;102291.16;5033757;28;20432;-46
2022/06/27 00:49:59;;;;;;;2.10;0.93;;;24.70;88.40;;;22.91;nan;102288.66;5032289;28;20025;-46
2022/06/27 00:52:25;;;;;;;1.65;1.20;;;24.50;88.00;;;22.91;nan;102290.56;5033454;28;20033;-45
2022/06/27 00:54:52;;;;;;;1.20;1.10;;;24.50;56.40;;;22.90;nan;102286.94;5033371;28;20056;-47
2022/06/27 00:57:18;;;;;;;1.80;1.38;;;24.50;88.30;;;22.90;nan;102278.69;5033294;28;20136;-46
2022/06/27 00:59:44;;;;;;;1.63;1.10;;;24.70;88.30;;;22.91;nan;102277.63;5033306;28;20065;-48
2022/06/27 01:02:10;;;;;;;1.75;1.02;;;24.50;88.30;;;22.90;nan;102286.09;5033393;28;20411;-46
2022/06/27 01:04:37;;;;;;;1.00;0.90;;;24.50;56.40;;;22.89;nan;102282.53;5033188;28;20029;-46
2022/06/27 01:07:07;;;;;;;1.25;1.15;;;24.70;88.50;;;22.89;nan;102281.69;5031891;28;20095;-45
2022/06/27 01:09:33;;;;;;;1.33;1.00;;;24.70;88.60;;;22.88;nan;102271.69;5033165;28;20112;-47
2022/06/27 01:11:59;;;;;;;1.27;1.17;;;24.50;75.10;;;22.86;nan;102269.19;5033266;28;20436;-47
2022/06/27 01:14:25;;;;;;;1.60;1.15;;;24.50;88.60;;;22.86;nan;102268.31;5033085;28;20034;-47
2022/06/27 01:16:51;;;;;;;1.50;1.00;;;24.40;88.30;;;22.86;nan;102262.81;5032634;28;20045;-46
2022/06/27 01:19:17;;;;;;;2.17;1.20;;;24.30;88.70;;;22.86;nan;102265.56;5032881;28;20131;-46
2022/06/27 01:21:49;;;;;;;1.48;1.17;;;24.50;56.30;;;22.86;nan;102271.09;5032969;28;20034;-45
2022/06/27 01:24:16;;;;;;;1.65;0.98;;;24.30;88.20;;;22.86;nan;102276.59;5032900;28;20048;-46
2022/06/27 01:26:43;;;;;;;1.55;1.35;;;24.50;72.50;;;22.86;nan;102282.97;5032326;28;20044;-46
2022/06/27 01:29:09;;;;;;;0.90;0.65;;;24.60;88.50;;;22.86;nan;102282.13;5031554;28;20041;-45
2022/06/27 01:31:36;;;;;;;1.63;0.90;;;24.70;56.90;;;22.84;nan;102279.56;5032692;28;20045;-49
2022/06/27 01:34:03;;;;;;;1.42;1.02;;;24.60;76.70;;;22.84;nan;102281.47;5032910;28;20389;-48
2022/06/27 01:36:41;;;;;;;1.45;1.25;;;;;;;22.83;nan;102283.41;5032525;28;20038;-47
2022/06/27 01:39:09;;;;;;;3.58;1.00;;;24.30;82.10;;;22.84;nan;102287.00;5032589;28;20034;-47
2022/06/27 01:41:35;;;;;;;1.75;1.00;;;24.50;88.80;;;22.83;nan;102280.66;5031337;28;20388;-49
2022/06/27 01:44:03;;;;;;;1.00;0.90;;;24.50;76.50;;;22.82;nan;102278.97;5032398;28;20080;-48
2022/06/27 01:46:51;;;;;;;1.33;1.00;;;24.40;77.60;;;22.81;nan;102274.50;5032468;28;20492;-48
2022/06/27 01:49:18;;;;;;;1.50;1.10;;;23.90;88.60;;;22.82;nan;102275.34;5032411;28;20038;-48
2022/06/27 01:51:48;;;;;;;1.38;0.93;;;24.60;87.00;;;22.82;nan;102264.31;5032786;28;20564;-50
2022/06/27 01:54:17;;;;;;;1.15;1.05;;;24.20;68.50;;;22.80;nan;102247.16;5031095;28;20029;-48
2022/06/27 01:56:44;;;;;;;1.45;0.98;;;24.40;84.20;;;22.80;nan;102247.16;5032213;28;20033;-48
2022/06/27 01:59:13;;;;;;;1.17;0.90;;;24.60;88.80;;;22.79;nan;102245.47;5032265;28;20041;-48
2022/06/27 02:01:41;;;;;;;1.85;0.93;;;24.40;88.70;;;22.79;nan;102249.06;5032232;28;20100;-50
2022/06/27 02:04:08;;;;;;;1.00;0.80;;;24.50;84.70;;;22.79;nan;102245.47;5032528;28;20377;-49
2022/06/27 02:06:34;;;;;;;1.15;1.05;;;;;;;22.79;nan;102250.97;5030924;28;20025;-48
2022/06/27 02:09:04;;;;;;;1.13;1.05;;;24.40;59.50;;;22.78;nan;102244.59;5030993;28;20060;-45
2022/06/27 02:11:30;;;;;;;;;;;24.30;57.40;;;22.79;nan;102242.69;5032653;28;20034;-47
2022/06/27 02:13:58;;;;;;;1.27;0.95;;;24.40;56.80;;;22.79;nan;102246.31;5032142;28;19913;-45
2022/06/27 02:16:24;;;;;;;1.52;0.93;;;24.20;89.00;;;22.78;nan;102244.59;5030704;28;20041;-45
2022/06/27 02:18:50;;;;;;;2.40;0.95;;;24.00;88.90;;;22.79;nan;102239.94;5032103;28;20068;-45
2022/06/27 02:21:25;;;;;;;1.08;0.98;;;24.60;57.10;;;22.77;nan;102231.91;5030793;28;20080;-45
2022/06/27 02:23:53;;;;;;;1.13;0.93;;;24.20;88.90;;;22.76;nan;102232.97;5032280;28;20446;-47
2022/06/27 02:26:24;;;;;;;0.98;0.90;;;24.40;88.90;;;22.75;nan;102227.66;5030781;28;20034;-46
2022/06/27 02:28:52;;;;;;;2.10;0.82;;;24.50;89.20;;;22.76;nan;102235.72;5032083;28;20110;-47
2022/06/27 02:31:19;;;;;;;1.20;0.88;;;24.20;89.20;;;22.75;nan;102230.41;5032019;28;20527;-45
2022/06/27 02:33:47;;;;;;;1.05;0.93;;;24.50;89.30;;;22.75;nan;102233.19;5031967;28;20495;-46
2022/06/27 02:36:19;;;;;;;1.48;1.20;;;24.30;56.70;;;22.75;nan;102235.94;5031863;28;20396;-46
2022/06/27 02:38:51;;;;;;;1.77;1.20;;;24.50;89.10;;;22.74;nan;102229.59;5032078;28;20038;-45
2022/06/27 02:41:20;;;;;;;2.45;0.93;;;24.40;88.80;;;22.74;nan;102229.59;5036205;28;20036;-47
2022/06/27 02:43:49;;;;;;;1.00;0.88;;;24.00;88.50;;;22.72;nan;102228.97;5034681;28;20534;-46
2022/06/27 02:46:15;;;;;;;1.15;1.00;;;24.60;89.00;;;22.73;nan;102233.41;5035838;28;20056;-49
2022/06/27 02:48:48;;;;;;;1.63;1.05;;;23.90;58.20;;;22.73;nan;102233.41;5035800;28;20038;-48
2022/06/27 02:51:20;;;;;;;2.10;1.27;;;24.20;88.90;;;22.72;nan;102225.38;5035749;28;20431;-48
2022/06/27 02:54:07;;;;;;;2.95;1.25;;;24.20;89.10;;;22.71;nan;102218.16;5035931;28;20032;-50
2022/06/27 02:56:41;;;;;;;1.35;1.00;;;24.30;88.70;;;22.71;nan;102218.16;5035646;28;20095;-48
2022/06/27 02:59:35;;;;;;;2.78;0.93;;;24.40;69.50;;;22.72;nan;102203.31;5035629;28;20087;-48
2022/06/27 03:02:01;;;;;;;1.38;1.20;;;24.50;88.30;;;22.71;nan;102191.44;5035536;28;20120;-49
2022/06/27 03:04:27;;;;;;;1.65;1.00;;;;;;;22.68;nan;102192.75;5035730;28;20403;-47
2022/06/27 03:06:53;;;;;;;1.35;1.15;;;24.00;88.00;;;22.68;nan;102186.38;5035482;28;20038;-46
2022/06/27 03:09:19;;;;;;;1.67;0.95;;;24.20;88.00;;;22.68;nan;102186.38;5035333;28;20121;-46
2022/06/27 03:11:48;;;;;;;1.02;0.90;;;24.00;87.80;;;22.68;nan;102194.66;5035662;28;20025;-46
2022/06/27 03:14:14;;;;;;;1.60;1.05;;;;;;;22.67;nan;102196.56;5035201;28;20033;-46
2022/06/27 03:16:40;;;;;;;0.88;0.88;;;24.30;56.60;;;22.66;nan;102200.38;5034970;28;20041;-47
2022/06/27 03:19:06;;;;;;;1.40;0.80;;;24.30;88.40;;;22.67;nan;102198.47;5035242;28;20046;-45
2022/06/27 03:21:33;;;;;;;2.92;1.02;;;;;;;22.67;nan;102192.94;5035345;28;20040;-45
2022/06/27 03:23:58;;;;;;;1.00;0.90;;;24.40;88.60;;;22.66;nan;102202.28;5035161;28;20049;-49
2022/06/27 03:26:24;;;;;;;1.55;0.95;;;;;;;22.65;nan;102198.69;5035049;28;20037;-48
2022/06/27 03:28:50;;;;;;;1.45;1.15;;;24.50;88.40;;;22.65;nan;102204.22;5035052;28;20067;-48
2022/06/27 03:31:16;;;;;;;1.83;1.20;;;24.40;88.50;;;22.65;nan;102206.97;5035014;28;20507;-49
2022/06/27 03:33:42;;;;;;;1.13;1.00;;;24.10;87.90;;;22.64;nan;102207.16;5035251;28;20034;-48
2022/06/27 03:36:08;;;;;;;1.08;0.90;;;23.80;88.00;;;22.63;nan;102209.06;5034984;28;20200;-48
2022/06/27 03:38:35;;;;;;;1.20;1.10;;;;;;;22.63;nan;102211.81;5034788;28;20038;-48
2022/06/27 03:41:01;;;;;;;1.90;1.27;;;24.20;80.10;;;22.63;nan;102210.97;5034913;28;20064;-47
2022/06/27 03:43:27;;;;;;;2.42;1.10;;;24.10;88.20;;;22.63;nan;102203.53;5035011;28;20036;-46
2022/06/27 03:45:55;;;;;;;1.42;1.33;;;24.10;88.30;;;22.62;nan;102190.84;5034693;28;20029;-47
2022/06/27 03:51:07;;;;;;;1.63;1.05;;;;;;;22.63;nan;102186.16;5034515;28;20057;-47
2022/06/27 03:53:33;;;;;;;2.25;1.17;;;24.20;88.20;;;22.61;nan;102177.25;5034595;28;20037;-47
2022/06/27 03:55:58;;;;;;;0.77;0.77;;;24.10;88.20;;;22.62;nan;102184.47;5034581;28;20041;-47
2022/06/27 03:58:24;;;;;;;0.85;0.85;;;24.20;88.40;;;22.61;nan;102182.78;5034402;28;20044;-46
2022/06/27 04:07:07;;;;;;;1.85;0.88;;;24.20;88.20;;;22.61;nan;102199.31;5061315;28;20124;-47
2022/06/27 04:09:32;;;;;;;1.67;1.23;;;24.30;88.20;;;22.61;nan;102202.09;5054482;28;20049;-47
2022/06/27 04:11:58;;;;;;;1.65;1.20;;;24.40;88.30;;;22.60;nan;102201.22;5054206;28;20041;-50
2022/06/27 04:14:24;;;;;;;2.63;1.20;;;23.80;87.60;;;22.59;nan;102199.56;5054265;28;20107;-48
2022/06/27 04:16:52;;;;;;;1.77;1.10;;;24.20;63.40;;;22.59;nan;102202.31;5036288;28;20037;-47
2022/06/27 04:19:18;;;;;;;2.15;1.05;;;;;;;22.61;nan;102208.44;5054454;28;20399;-48
2022/06/27 04:21:43;;;;;;;2.70;1.15;;;24.20;67.20;;;22.65;nan;102192.34;5054010;28;20489;-49
2022/06/27 04:24:09;;;;;;;2.47;0.90;;;;;;;22.72;nan;102178.50;5053985;28;20201;-50
2022/06/27 04:26:36;;;;;;;1.50;1.00;;;;;;;22.75;nan;102162.31;5053936;28;20090;-50
2022/06/27 04:29:02;;;;;;;4.55;1.50;;;24.30;82.10;;;22.67;nan;102146.06;5054010;28;20044;-48
2022/06/27 04:31:28;;;;;;;4.20;0.93;;;24.20;89.00;;;22.63;nan;102156.66;5054196;28;20037;-48
2022/06/27 04:33:53;;;;;;;2.20;1.40;;;24.30;89.40;;;22.61;nan;102156.06;5054140;28;20441;-49
2022/06/27 04:36:19;;;;;;;2.25;1.30;;;;;;;22.59;nan;102165.63;5053878;28;20037;-48
2022/06/27 04:38:46;;;;;;;3.33;1.13;;;;;;;22.59;nan;102160.13;5053813;28;20041;-48
2022/06/27 04:41:12;;;;;;;3.70;1.13;;;24.50;89.10;;;22.60;nan;102150.75;5053772;28;20032;-47
2022/06/27 04:43:38;;;;;;;2.50;1.17;;;;;;;22.63;nan;102144.78;5053662;28;20111;-48
2022/06/27 04:46:05;;;;;;;1.50;1.30;;;24.10;86.80;;;22.63;nan;102142.03;5053657;28;20037;-46
2022/06/27 04:48:34;;;;;;;2.17;1.20;;;24.30;88.70;;;22.65;nan;102132.53;5053603;28;20040;-45
2022/06/27 04:51:01;;;;;;;1.00;0.90;;;24.30;85.10;;;22.61;nan;102130.41;5053470;28;20394;-45
2022/06/27 04:53:27;;;;;;;2.10;1.33;;;24.40;89.10;;;22.59;nan;102135.31;5053499;28;20071;-47
2022/06/27 04:55:54;;;;;;;3.03;1.10;;;;;;;22.56;nan;102133.84;5053815;28;20037;-47
2022/06/27 04:58:20;;;;;;;2.95;1.23;;;24.10;82.60;;;22.57;nan;102145.69;5053303;28;20044;-46
2022/06/27 05:00:46;;;;;;;2.35;1.23;;;24.10;88.70;;;22.58;nan;102144.63;5052712;28;20033;-46
2022/06/27 05:03:12;;;;;;;2.22;1.10;;;24.40;89.00;;;22.56;nan;102150.38;5052945;28;20051;-46
2022/06/27 05:05:38;;;;;;;2.30;0.85;;;24.10;70.00;;;22.57;nan;102156.72;5053297;28;20033;-46
2022/06/27 05:08:05;;;;;;;1.52;1.08;;;24.20;89.10;;;22.55;nan;102161.63;5053258;28;20082;-48
2022/06/27 05:10:30;;;;;;;1.23;1.00;;;24.20;89.20;;;22.55;nan;102167.13;5053460;28;20434;-47
2022/06/27 05:12:56;;;;;;;1.30;1.20;;;24.20;89.20;;;22.54;nan;102163.53;5053111;28;20048;-48
2022/06/27 05:15:22;;;;;;;1.67;1.20;;;24.10;88.90;;;22.54;nan;102152.50;5053448;28;20112;-49
2022/06/27 05:17:48;;;;;;;1.55;1.00;;;24.40;78.10;;;22.55;nan;102161.63;5052934;28;20076;-50
2022/06/27 05:20:14;;;;;;;1.77;1.17;;;;;;;22.55;nan;102164.38;5052987;28;20036;-47
2022/06/27 05:22:40;;;;;;;1.15;1.02;;;24.30;86.00;;;22.54;nan;102174.56;5052976;28;20037;-48
2022/06/27 05:25:07;;;;;;;2.53;1.25;;;24.20;60.00;;;22.54;nan;102185.59;5052930;28;20040;-48
2022/06/27 05:27:35;;;;;;;1.88;1.20;;;23.90;89.00;;;22.54;nan;102185.59;5052942;28;20037;-49
2022/06/27 05:30:04;;;;;;;3.15;1.20;;;;;;;22.54;nan;102204.03;5053146;28;20060;-49
2022/06/27 05:32:30;;;;;;;3.38;1.10;;;;;;;22.54;nan;102196.59;5052909;28;20033;-45
2022/06/27 05:34:56;;;;;;;1.48;1.10;;;;;;;22.53;nan;102200.47;5052817;28;20539;-46
2022/06/27 05:37:22;;;;;;;1.33;1.00;;;24.30;89.20;;;22.54;nan;102198.50;5052686;28;20056;-46
2022/06/27 05:39:48;;;;;;;1.65;1.25;;;;;;;22.53;nan;102208.72;5052948;28;20457;-46
2022/06/27 05:42:14;;;;;;;3.50;1.30;;;24.40;71.70;;;22.53;nan;102205.97;5052812;28;20040;-47
2022/06/27 05:44:40;;;;;;;2.17;1.27;;;;;;;22.53;nan;102205.13;5052878;28;20033;-46
2022/06/27 05:47:06;;;;;;;1.63;1.13;;;24.00;67.70;;;22.52;nan;102204.28;5052559;28;20037;-46
2022/06/27 05:49:33;;;;;;;1.40;1.27;;;;;;;22.53;nan;102213.38;5052024;28;20072;-45
2022/06/27 05:52:00;;;;;;;1.40;1.17;;;24.30;89.80;;;22.53;nan;102214.25;5052456;28;20032;-48
2022/06/27 05:54:27;;;;;;;4.70;1.50;;;23.80;65.90;;;22.53;nan;102222.50;5052409;28;20033;-49
2022/06/27 05:56:53;;;;;;;2.88;1.27;;;24.00;89.50;;;22.52;nan;102240.09;5052445;28;20074;-49
2022/06/27 05:59:20;;;;;;;2.05;1.05;;;;;;;22.53;nan;102230.78;5052401;28;20056;-48
2022/06/27 06:01:46;;;;;;;2.65;1.30;;;;;;;22.52;nan;102237.34;5052167;28;20039;-47
2022/06/27 06:04:12;;;;;;;3.47;1.20;;;23.30;58.50;;;22.53;nan;102233.53;5052410;28;20033;-47
2022/06/27 06:06:38;;;;;;;1.73;1.10;;;23.90;78.90;;;22.52;nan;102245.63;5052424;28;20068;-48
2022/06/27 06:09:05;;;;;;;2.67;1.50;;;24.10;89.50;;;22.52;nan;102247.53;5052369;28;20556;-49
2022/06/27 06:11:31;;;;;;;2.38;1.50;;;24.40;90.00;;;22.52;nan;102242.00;5052640;28;20037;-49
2022/06/27 06:13:57;;;;;;;3.40;1.52;;;24.30;90.00;;;22.52;nan;102231.00;5052157;28;20028;-50
2022/06/27 06:16:24;;;;;;;2.10;1.52;;;;;;;22.53;nan;102227.16;5052508;28;20040;-51
2022/06/27 06:18:52;;;;;;;1.83;1.50;;;24.20;57.30;;;22.52;nan;102222.72;5052217;28;20491;-49
2022/06/27 06:21:20;;;;;;;2.70;1.27;;;24.10;89.20;;;22.53;nan;102227.16;5052100;28;20067;-48
2022/06/27 06:23:46;;;;;;;2.72;1.38;;;24.00;89.20;;;22.53;nan;102241.81;5052469;28;20380;-50
2022/06/27 06:26:16;;;;;;;1.45;1.27;;;24.40;89.40;;;22.53;nan;102255.59;5052437;28;20029;-48
2022/06/27 06:28:44;;;;;;;2.30;1.40;;;23.90;64.90;;;22.53;nan;102271.28;5052518;28;20398;-49
2022/06/27 06:31:10;;;;;;;4.00;1.60;;;;;;;22.53;nan;102280.41;5052305;28;20029;-49
2022/06/27 06:33:36;;;;;;;2.63;1.30;;;24.40;90.00;;;22.53;nan;102287.81;5052355;28;20044;-48
2022/06/27 06:36:02;;;;;;;2.70;1.40;;;24.00;77.90;;;22.52;nan;102289.72;5052343;28;20395;-48
2022/06/27 06:38:29;;;;;;;2.55;1.38;;;24.40;61.60;;;22.53;nan;102285.06;5051952;28;20056;-49
2022/06/27 06:40:55;;;;;;;3.33;1.42;;;24.40;89.90;;;22.52;nan;102280.59;5052064;28;20072;-48
2022/06/27 06:43:21;;;;;;;1.70;1.48;;;24.00;89.90;;;22.51;nan;102285.28;5052011;28;20483;-49
2022/06/27 06:45:47;;;;;;;2.03;1.38;;;24.20;90.00;;;22.50;nan;102278.09;5052305;28;20106;-46
2022/06/27 06:48:17;;;;;;;2.08;1.52;;;;;;;22.49;nan;102259.00;5052237;28;20063;-45
2022/06/27 06:50:43;;;;;;;1.50;1.30;;;24.00;89.50;;;22.50;nan;102252.44;5052000;28;20567;-45
2022/06/27 06:53:09;;;;;;;2.15;1.50;;;24.40;89.60;;;22.48;nan;102233.34;5051941;28;20116;-45
2022/06/27 06:55:35;;;;;;;3.13;1.50;;;24.40;90.00;;;22.48;nan;102208.53;5051871;28;20148;-45
2022/06/27 06:58:00;;;;;;;2.22;1.40;;;24.10;89.80;;;22.47;nan;102198.59;5051855;28;20064;-47
2022/06/27 07:00:27;;;;;;;3.92;1.73;;;24.20;89.90;;;22.49;nan;102212.13;5051854;28;20040;-45
2022/06/27 07:02:53;;;;;;;3.50;1.42;;;23.70;89.60;;;22.49;nan;102201.09;5051634;28;20075;-44
2022/06/27 07:05:20;;;;;;;3.20;1.85;;;23.90;89.60;;;22.47;nan;102184.81;5051803;28;20111;-47
2022/06/27 07:07:50;;;;;;;2.97;1.58;;;;;;;22.48;nan;102191.13;5051777;28;20175;-48
2022/06/27 07:10:18;;;;;;;2.17;1.60;;;23.90;89.70;;;22.47;nan;102195.84;5051795;28;20487;-48
2022/06/27 07:12:44;;;;;;;1.50;1.20;;;24.10;75.30;;;22.51;nan;102201.72;5051676;28;20044;-50
2022/06/27 07:15:11;;;;;;;1.95;1.25;;;24.20;57.10;;;22.52;nan;102196.00;5051445;28;20033;-51
2022/06/27 07:17:49;;;;;;;1.85;1.20;;;24.40;89.70;;;22.53;nan;102199.59;5051439;28;20120;-49
2022/06/27 07:20:19;;;;;;;1.40;1.00;;;24.00;61.10;;;22.55;nan;102209.34;5051509;28;20037;-51
2022/06/27 07:22:49;;;;;;;2.25;1.20;;;24.40;90.00;;;22.56;nan;102216.56;5051710;28;20402;-51
2022/06/27 07:25:15;;;;;;;1.38;1.23;;;24.30;89.70;;;22.54;nan;102218.66;5053393;28;20481;-49
2022/06/27 07:27:42;;;;;;;4.10;1.73;;;24.00;89.60;;;22.54;nan;102226.94;5055066;28;20049;-49
2022/06/27 07:30:11;;;;;;;1.65;1.55;;;24.00;79.30;;;22.58;nan;102236.47;5055170;28;20037;-52
2022/06/27 07:32:39;;;;;;;2.13;1.50;;;24.10;89.80;;;22.58;nan;102239.22;5055069;28;20471;-50
2022/06/27 07:35:09;;;;;;;2.65;1.30;;;24.10;89.90;;;22.58;nan;102246.63;5055347;28;20047;-51
2022/06/27 07:37:39;;;;;;;2.10;1.55;;;24.40;89.80;;;22.56;nan;102251.53;5054907;28;20033;-50
2022/06/27 07:40:07;;;;;;;2.03;1.40;;;24.20;57.50;;;22.53;nan;102261.09;5055066;28;20039;-49
2022/06/27 07:42:35;;;;;;;1.75;1.20;;;24.40;89.40;;;22.55;nan;102249.84;5054872;28;20044;-47
2022/06/27 07:45:01;;;;;;;2.05;1.30;;;23.90;89.40;;;22.53;nan;102247.31;5054918;28;20180;-49
2022/06/27 07:47:27;;;;;;;4.97;1.20;;;24.00;89.40;;;22.55;nan;102250.69;5055204;28;20049;-47
2022/06/27 07:49:52;;;;;;;2.58;1.38;;;24.40;89.60;;;22.55;nan;102242.41;5054926;28;20531;-47
2022/06/27 07:52:18;;;;;;;1.58;1.30;;;23.90;89.20;;;22.56;nan;102252.38;5054815;28;20127;-47
2022/06/27 07:54:44;;;;;;;1.90;1.20;;;24.30;89.20;;;22.56;nan;102265.31;5054937;28;20033;-46
2022/06/27 07:57:10;;;;;;;3.38;1.30;;;24.40;69.40;;;22.58;nan;102276.97;5054678;28;20490;-45
2022/06/27 07:59:38;;;;;;;2.90;1.52;;;24.00;89.40;;;22.56;nan;102257.91;5054956;28;20078;-49
2022/06/27 08:02:04;;;;;;;2.50;1.85;;;24.00;89.60;;;22.51;nan;102249.44;5054163;28;20091;-49
2022/06/27 08:04:31;;;;;;;1.88;1.25;;;24.20;89.50;;;22.54;nan;102254.50;5054536;28;20040;-50
2022/06/27 08:06:57;;;;;;;5.80;1.58;;;24.20;89.70;;;22.56;nan;102274.44;5054744;28;20380;-51
2022/06/27 08:09:23;;;;;;;2.58;1.50;;;24.20;89.60;;;22.56;nan;102257.06;5053962;28;20036;-50
2022/06/27 08:11:49;;;;;;;2.90;1.67;;;24.00;89.70;;;22.55;nan;102250.69;5054532;28;20441;-49
2022/06/27 08:14:17;;;;;;;3.38;1.77;;;23.80;89.70;;;22.54;nan;102235.22;5054401;28;20079;-52
2022/06/27 08:16:49;;;;;;;1.30;1.20;;;24.20;89.70;;;22.56;nan;102243.28;5054316;28;20437;-51
2022/06/27 08:19:15;;;;;;;3.22;1.50;;;24.10;89.90;;;22.55;nan;102245.19;5054634;28;20041;-47
2022/06/27 08:21:43;;;;;;;1.45;1.17;;;24.10;89.70;;;22.54;nan;102237.97;5054004;28;20029;-46
2022/06/27 08:24:16;;;;;;;1.20;1.10;;;24.20;57.40;;;22.57;nan;102240.28;5054375;28;20087;-46
2022/06/27 08:26:44;;;;;;;3.13;1.10;;;24.60;60.90;;;22.58;nan;102247.50;5053578;28;20029;-47
2022/06/27 08:29:10;;;;;;;2.15;1.50;;;24.40;89.70;;;22.54;nan;102240.72;5054203;28;20081;-47
2022/06/27 08:31:39;;;;;;;2.10;1.35;;;24.00;89.40;;;22.52;nan;102245.63;5053820;28;20569;-47
2022/06/27 08:34:06;;;;;;;4.20;1.52;;;24.40;77.70;;;22.57;nan;102259.56;5053881;28;20095;-47
2022/06/27 08:36:35;;;;;;;2.33;1.77;;;24.20;57.30;;;22.56;nan;102276.34;5036092;28;20041;-45
2022/06/27 08:39:07;;;;;;;1.40;1.25;;;24.10;67.10;;;22.57;nan;102278.03;5053624;28;20060;-46
2022/06/27 08:41:35;;;;;;;1.48;1.38;;;24.20;89.60;;;22.62;nan;102280.97;5053571;28;20040;-47
2022/06/27 08:44:04;;;;;;;1.42;1.33;;;24.40;89.70;;;22.65;nan;102289.69;5053616;28;20064;-45
2022/06/27 08:46:30;;;;;;;2.38;1.33;;;;;;;22.64;nan;102304.53;5052891;28;20421;-45
2022/06/27 08:48:57;;;;;;;4.30;1.38;;;24.40;89.50;;;22.67;nan;102304.09;5053523;28;20037;-45
2022/06/27 08:51:25;;;;;;;1.75;1.50;;;24.20;90.10;;;22.68;nan;102293.91;5053578;28;20487;-45
2022/06/27 08:53:53;;;;;;;1.40;1.30;;;24.40;58.10;;;22.74;nan;102304.06;5053799;28;20120;-52
2022/06/27 08:56:20;;;;;;;1.67;1.27;;;24.30;90.10;;;22.76;nan;102303.81;5053567;28;20114;-54
2022/06/27 08:58:47;;;;;;;2.58;1.23;;;24.50;89.90;;;22.83;nan;102299.97;5053271;28;20041;-51
2022/06/27 09:01:16;;;;;;;2.08;1.63;;;24.50;57.60;;;22.85;nan;102314.38;5053341;28;20105;-53
2022/06/27 09:04:01;;;;;;;2.67;1.33;;;24.30;57.40;;;22.95;nan;102324.91;5052782;28;20107;-49
2022/06/27 09:06:35;;;;;;;3.03;1.73;;;24.30;89.90;;;23.05;nan;102319.72;5036297;28;20044;-50
2022/06/27 09:09:08;;;;;;;4.15;1.80;;;24.50;90.00;;;23.01;nan;102313.00;5035353;28;20548;-48
2022/06/27 09:11:41;;;;;;;2.50;1.92;;;24.90;90.10;;;23.00;nan;102322.31;5052724;28;20039;-52
2022/06/27 09:14:42;;;;;;;2.60;1.60;;;24.70;57.50;;;23.02;nan;102303.63;5053365;28;20037;-44
2022/06/27 09:17:14;;;;;;;1.80;1.40;;;25.00;89.90;;;23.06;nan;102296.59;5052702;28;20040;-44
2022/06/27 09:19:54;;;;;;;2.45;1.77;;;24.70;56.80;;;23.13;nan;102291.88;5053173;28;20048;-44
2022/06/27 09:22:23;;;;;;;2.65;1.50;;;24.60;58.60;;;23.13;nan;102298.22;5053185;28;20033;-44
2022/06/27 09:25:13;;;;;;;6.45;1.77;;;24.60;89.70;;;23.27;nan;102301.72;5052841;28;20506;-43
2022/06/27 09:27:50;;;;;;;3.53;1.90;;;24.80;57.60;;;23.38;nan;102303.75;5052854;28;20029;-45
2022/06/27 09:30:21;;;;;;;3.65;1.70;;;24.90;57.20;;;23.46;nan;102299.91;5053083;28;20021;-44
2022/06/27 09:32:50;;;;;;;4.20;1.90;;;25.10;90.10;;;23.44;nan;102305.63;5052601;28;20067;-45
2022/06/27 09:35:28;;;;;;;4.90;1.70;;;24.80;67.00;;;23.44;nan;102297.34;5052443;28;20033;-44
2022/06/27 09:37:57;;;;;;;2.55;1.58;;;24.80;84.70;;;23.53;nan;102304.28;5052517;28;20179;-44
2022/06/27 09:40:25;;;;;;;6.00;2.13;;;25.30;90.00;;;23.57;nan;102305.50;5034793;28;20025;-45
2022/06/27 09:42:56;;;;;;;4.80;1.90;;;25.30;89.60;;;23.73;nan;102312.34;5052618;28;20099;-46
2022/06/27 09:45:28;;;;;;;4.18;2.03;;;24.90;83.10;;;23.72;nan;102303.25;5052632;28;20032;-46
2022/06/27 09:48:04;;;;;;;3.97;2.08;;;25.00;82.50;;;23.70;nan;102302.59;5050805;28;20047;-47
2022/06/27 09:50:34;;;;;;;2.30;1.88;;;25.30;57.80;;;23.77;nan;102294.25;5052356;28;20108;-45
2022/06/27 09:53:01;;;;;;;2.25;1.85;;;25.30;57.70;;;23.82;nan;102299.06;5052374;28;20024;-46
2022/06/27 09:55:27;;;;;;;3.42;2.05;;;25.20;84.30;;;23.81;nan;102303.78;5052389;28;20033;-47
2022/06/27 09:57:55;;;;;;;3.08;1.77;;;25.80;60.80;;;23.84;nan;102308.00;5052340;28;20507;-45
2022/06/27 10:00:22;;;;;;;3.13;2.10;;;25.30;57.80;;;23.87;nan;102305.63;5051054;28;20037;-47
2022/06/27 10:02:49;;;;;;;3.33;2.00;;;25.60;90.20;;;23.96;nan;102303.41;5052186;28;20360;-46
2022/06/27 10:05:16;;;;;;;5.55;1.90;;;25.50;90.30;;;23.77;nan;102313.59;5052434;28;20029;-46
2022/06/27 10:08:00;;;;;;;3.25;1.98;;;25.40;90.20;;;23.66;nan;102306.91;5052330;28;20099;-48
2022/06/27 10:10:31;;;;;;;1.48;1.40;;;25.50;90.00;;;23.65;nan;102305.22;5052678;28;20043;-49
2022/06/27 10:13:03;;;;;;;3.85;2.03;;;25.00;89.90;;;23.79;nan;102315.03;5034180;28;20099;-50
2022/06/27 10:15:32;;;;;;;4.60;1.98;;;25.20;89.80;;;23.76;nan;102323.78;5051973;28;20028;-49
2022/06/27 10:18:02;;;;;;;4.37;2.23;;;25.40;83.70;;;23.68;nan;102324.09;5052210;28;20119;-49
2022/06/27 10:20:28;;;;;;;2.42;1.75;;;;;;;23.53;nan;102323.59;5052273;28;20555;-51
2022/06/27 10:23:09;;;;;;;3.47;1.70;;;25.40;73.90;;;23.47;nan;102332.78;5052476;28;20028;-50
2022/06/27 10:25:40;;;;;;;2.70;1.90;;;25.00;89.80;;;23.42;nan;102323.50;5052270;28;20041;-50
2022/06/27 10:28:12;;;;;;;2.35;1.80;;;25.30;72.10;;;23.38;nan;102313.94;5052185;28;20029;-45
2022/06/27 10:30:50;;;;;;;3.78;1.67;;;25.00;72.10;;;23.35;nan;102308.88;5052425;28;20052;-45
2022/06/27 10:33:21;;;;;;;2.35;1.40;;;24.90;89.80;;;23.33;nan;102313.78;5052082;28;20507;-45
2022/06/27 10:35:59;;;;;;;2.35;1.55;;;25.40;90.10;;;23.30;nan;102311.47;5052121;28;20395;-46
2022/06/27 10:38:39;;;;;;;2.53;1.17;;;25.30;90.10;;;23.26;nan;102311.06;5051918;28;20436;-45
2022/06/27 10:41:31;;;;;;;3.10;1.73;;;25.30;90.20;;;23.24;nan;102305.78;5051814;28;20041;-44
2022/06/27 10:43:59;;;;;;;4.50;1.77;;;25.30;90.00;;;23.32;nan;102309.31;5045044;28;20049;-43
2022/06/27 10:46:24;;;;;;;2.55;1.60;;;25.20;89.70;;;23.31;nan;102305.72;5052024;28;20025;-44
2022/06/27 10:48:58;;;;;;;4.28;1.83;;;25.30;90.00;;;23.36;nan;102308.66;5051991;28;20045;-44
2022/06/27 10:51:31;;;;;;;2.25;2.00;;;25.10;66.80;;;23.39;nan;102299.09;5051916;28;20112;-44